sensor_id;sensor_type;location;lat;lon;timestamp;P1;P2;P0
28026;PMS5003;15344;52.342;-1.290;2023-11-22T00:00:07;13;13;
28026;PMS5003;15344;52.342;-1.290;2023-11-22T00:02:32;13;11;
28026;PMS5003;15344;52.342;-1.290;2023-11-22T00:04:57;12;12;
28026;PMS5003;15344;52.342;-1.290;2023-11-22T00:07:22;13;12;
28026;PMS5003;15344;52.342;-1.290;2023-11-22T00:09:48;16;13;
28026;PMS5003;15344;52.342;-1.290;2023-11-22T00:12:13;11;11;
28026;PMS5003;15344;52.342;-1.290;2023-11-22T00:14:39;15;11;
28026;PMS5003;15344;52.342;-1.290;2023-11-22T00:17:04;11;11;
28026;PMS5003;15344;52.342;-1.290;2023-11-22T00:19:29;13;12;
28026;PMS5003;15344;52.342;-1.290;2023-11-22T00:21:55;10;9;
28026;PMS5003;15344;52.342;-1.290;2023-11-22T00:24:20;13;13;
28026;PMS5003;15344;52.342;-1.290;2023-11-22T00:26:46;17;15;
28026;PMS5003;15344;52.342;-1.290;2023-11-22T00:29:11;12;10;
28026;PMS5003;15344;52.342;-1.290;2023-11-22T00:31:36;20;13;
28026;PMS5003;15344;52.342;-1.290;2023-11-22T00:34:02;12;12;
28026;PMS5003;15344;52.342;-1.290;2023-11-22T00:36:27;13;12;
28026;PMS5003;15344;52.342;-1.290;2023-11-22T00:38:52;13;12;
28026;PMS5003;15344;52.342;-1.290;2023-11-22T00:41:18;25;17;
28026;PMS5003;15344;52.342;-1.290;2023-11-22T00:43:43;26;16;
28026;PMS5003;15344;52.342;-1.290;2023-11-22T00:46:08;20;17;
28026;PMS5003;15344;52.342;-1.290;2023-11-22T00:48:34;25;17;
28026;PMS5003;15344;52.342;-1.290;2023-11-22T00:50:59;21;16;
28026;PMS5003;15344;52.342;-1.290;2023-11-22T00:53:24;19;17;
28026;PMS5003;15344;52.342;-1.290;2023-11-22T00:55:50;16;14;
28026;PMS5003;15344;52.342;-1.290;2023-11-22T00:58:16;21;19;
28026;PMS5003;15344;52.342;-1.290;2023-11-22T01:00:41;19;16;
28026;PMS5003;15344;52.342;-1.290;2023-11-22T01:03:06;20;16;
28026;PMS5003;15344;52.342;-1.290;2023-11-22T01:05:31;20;17;
28026;PMS5003;15344;52.342;-1.290;2023-11-22T01:07:57;22;15;
28026;PMS5003;15344;52.342;-1.290;2023-11-22T01:10:23;20;15;
28026;PMS5003;15344;52.342;-1.290;2023-11-22T01:12:47;16;14;
28026;PMS5003;15344;52.342;-1.290;2023-11-22T01:15:13;17;15;
28026;PMS5003;15344;52.342;-1.290;2023-11-22T01:17:38;20;15;
28026;PMS5003;15344;52.342;-1.290;2023-11-22T01:20:04;14;13;
28026;PMS5003;15344;52.342;-1.290;2023-11-22T01:22:29;18;15;
28026;PMS5003;15344;52.342;-1.290;2023-11-22T01:24:55;22;15;
28026;PMS5003;15344;52.342;-1.290;2023-11-22T01:27:20;13;12;
28026;PMS5003;15344;52.342;-1.290;2023-11-22T01:29:46;18;14;
28026;PMS5003;15344;52.342;-1.290;2023-11-22T01:32:11;15;14;
28026;PMS5003;15344;52.342;-1.290;2023-11-22T01:34:37;16;14;
28026;PMS5003;15344;52.342;-1.290;2023-11-22T01:37:02;18;14;
28026;PMS5003;15344;52.342;-1.290;2023-11-22T01:39:28;20;14;
28026;PMS5003;15344;52.342;-1.290;2023-11-22T01:41:53;14;14;
28026;PMS5003;15344;52.342;-1.290;2023-11-22T01:44:18;14;14;
28026;PMS5003;15344;52.342;-1.290;2023-11-22T01:46:44;15;13;
28026;PMS5003;15344;52.342;-1.290;2023-11-22T01:49:09;20;15;
28026;PMS5003;15344;52.342;-1.290;2023-11-22T01:51:34;18;15;
28026;PMS5003;15344;52.342;-1.290;2023-11-22T01:53:59;23;14;
28026;PMS5003;15344;52.342;-1.290;2023-11-22T01:56:25;15;15;
28026;PMS5003;15344;52.342;-1.290;2023-11-22T01:58:49;16;14;
28026;PMS5003;15344;52.342;-1.290;2023-11-22T02:01:15;15;15;
28026;PMS5003;15344;52.342;-1.290;2023-11-22T02:03:41;19;17;
28026;PMS5003;15344;52.342;-1.290;2023-11-22T02:06:06;26;14;
28026;PMS5003;15344;52.342;-1.290;2023-11-22T02:08:31;19;14;
28026;PMS5003;15344;52.342;-1.290;2023-11-22T02:10:57;20;14;
28026;PMS5003;15344;52.342;-1.290;2023-11-22T02:13:22;14;12;
28026;PMS5003;15344;52.342;-1.290;2023-11-22T02:15:48;19;16;
28026;PMS5003;15344;52.342;-1.290;2023-11-22T02:18:13;18;13;
28026;PMS5003;15344;52.342;-1.290;2023-11-22T02:20:38;16;13;
28026;PMS5003;15344;52.342;-1.290;2023-11-22T02:23:07;18;12;
28026;PMS5003;15344;52.342;-1.290;2023-11-22T02:25:29;21;14;
28026;PMS5003;15344;52.342;-1.290;2023-11-22T02:27:54;16;15;
28026;PMS5003;15344;52.342;-1.290;2023-11-22T02:30:19;19;14;
28026;PMS5003;15344;52.342;-1.290;2023-11-22T02:32:45;19;14;
28026;PMS5003;15344;52.342;-1.290;2023-11-22T02:35:10;14;13;
28026;PMS5003;15344;52.342;-1.290;2023-11-22T02:37:36;21;13;
28026;PMS5003;15344;52.342;-1.290;2023-11-22T02:40:04;17;13;
28026;PMS5003;15344;52.342;-1.290;2023-11-22T02:42:26;13;10;
28026;PMS5003;15344;52.342;-1.290;2023-11-22T02:44:52;16;13;
28026;PMS5003;15344;52.342;-1.290;2023-11-22T02:47:17;15;13;
28026;PMS5003;15344;52.342;-1.290;2023-11-22T02:49:42;12;11;
28026;PMS5003;15344;52.342;-1.290;2023-11-22T02:52:08;12;10;
28026;PMS5003;15344;52.342;-1.290;2023-11-22T02:54:33;14;13;
28026;PMS5003;15344;52.342;-1.290;2023-11-22T02:56:59;17;15;
28026;PMS5003;15344;52.342;-1.290;2023-11-22T02:59:24;24;14;
28026;PMS5003;15344;52.342;-1.290;2023-11-22T03:01:50;20;15;
28026;PMS5003;15344;52.342;-1.290;2023-11-22T03:04:16;20;17;
28026;PMS5003;15344;52.342;-1.290;2023-11-22T03:06:41;17;16;
28026;PMS5003;15344;52.342;-1.290;2023-11-22T03:09:06;19;16;
28026;PMS5003;15344;52.342;-1.290;2023-11-22T03:11:31;17;17;
28026;PMS5003;15344;52.342;-1.290;2023-11-22T03:13:57;20;17;
28026;PMS5003;15344;52.342;-1.290;2023-11-22T03:16:22;20;15;
28026;PMS5003;15344;52.342;-1.290;2023-11-22T03:18:47;21;16;
28026;PMS5003;15344;52.342;-1.290;2023-11-22T03:21:13;20;17;
28026;PMS5003;15344;52.342;-1.290;2023-11-22T03:23:38;21;16;
28026;PMS5003;15344;52.342;-1.290;2023-11-22T03:26:04;21;20;
28026;PMS5003;15344;52.342;-1.290;2023-11-22T03:28:30;24;18;
28026;PMS5003;15344;52.342;-1.290;2023-11-22T03:30:56;25;20;
28026;PMS5003;15344;52.342;-1.290;2023-11-22T03:33:21;22;19;
28026;PMS5003;15344;52.342;-1.290;2023-11-22T03:35:47;20;17;
28026;PMS5003;15344;52.342;-1.290;2023-11-22T03:38:12;23;20;
28026;PMS5003;15344;52.342;-1.290;2023-11-22T03:40:38;22;20;
28026;PMS5003;15344;52.342;-1.290;2023-11-22T03:43:03;23;19;
28026;PMS5003;15344;52.342;-1.290;2023-11-22T03:45:28;32;22;
28026;PMS5003;15344;52.342;-1.290;2023-11-22T03:47:54;21;20;
28026;PMS5003;15344;52.342;-1.290;2023-11-22T03:50:20;35;22;
28026;PMS5003;15344;52.342;-1.290;2023-11-22T03:52:46;31;22;
28026;PMS5003;15344;52.342;-1.290;2023-11-22T03:55:12;26;21;
28026;PMS5003;15344;52.342;-1.290;2023-11-22T03:57:37;27;22;
28026;PMS5003;15344;52.342;-1.290;2023-11-22T04:00:03;35;23;
28026;PMS5003;15344;52.342;-1.290;2023-11-22T04:02:28;25;21;
28026;PMS5003;15344;52.342;-1.290;2023-11-22T04:04:54;33;23;
28026;PMS5003;15344;52.342;-1.290;2023-11-22T04:07:19;24;21;
28026;PMS5003;15344;52.342;-1.290;2023-11-22T04:09:45;29;24;
28026;PMS5003;15344;52.342;-1.290;2023-11-22T04:12:10;37;26;
28026;PMS5003;15344;52.342;-1.290;2023-11-22T04:14:35;34;23;
28026;PMS5003;15344;52.342;-1.290;2023-11-22T04:17:01;29;21;
28026;PMS5003;15344;52.342;-1.290;2023-11-22T04:19:26;29;21;
28026;PMS5003;15344;52.342;-1.290;2023-11-22T04:21:51;30;21;
28026;PMS5003;15344;52.342;-1.290;2023-11-22T04:24:17;22;22;
28026;PMS5003;15344;52.342;-1.290;2023-11-22T04:26:43;22;19;
28026;PMS5003;15344;52.342;-1.290;2023-11-22T04:29:08;34;25;
28026;PMS5003;15344;52.342;-1.290;2023-11-22T04:31:34;22;20;
28026;PMS5003;15344;52.342;-1.290;2023-11-22T04:33:59;31;24;
28026;PMS5003;15344;52.342;-1.290;2023-11-22T04:36:25;29;23;
28026;PMS5003;15344;52.342;-1.290;2023-11-22T04:38:51;28;25;
28026;PMS5003;15344;52.342;-1.290;2023-11-22T04:41:16;31;21;
28026;PMS5003;15344;52.342;-1.290;2023-11-22T04:43:42;27;21;
28026;PMS5003;15344;52.342;-1.290;2023-11-22T04:46:07;24;21;
28026;PMS5003;15344;52.342;-1.290;2023-11-22T04:48:33;23;22;
28026;PMS5003;15344;52.342;-1.290;2023-11-22T04:50:59;21;18;
28026;PMS5003;15344;52.342;-1.290;2023-11-22T04:53:24;24;22;
28026;PMS5003;15344;52.342;-1.290;2023-11-22T04:55:50;29;22;
28026;PMS5003;15344;52.342;-1.290;2023-11-22T04:58:16;22;20;
28026;PMS5003;15344;52.342;-1.290;2023-11-22T05:00:41;22;17;
28026;PMS5003;15344;52.342;-1.290;2023-11-22T05:03:06;24;22;
28026;PMS5003;15344;52.342;-1.290;2023-11-22T05:05:31;23;18;
28026;PMS5003;15344;52.342;-1.290;2023-11-22T05:07:57;23;19;
28026;PMS5003;15344;52.342;-1.290;2023-11-22T05:10:22;28;19;
28026;PMS5003;15344;52.342;-1.290;2023-11-22T05:12:48;20;19;
28026;PMS5003;15344;52.342;-1.290;2023-11-22T05:15:13;20;19;
28026;PMS5003;15344;52.342;-1.290;2023-11-22T05:17:39;30;22;
28026;PMS5003;15344;52.342;-1.290;2023-11-22T05:20:05;25;22;
28026;PMS5003;15344;52.342;-1.290;2023-11-22T05:22:30;23;19;
28026;PMS5003;15344;52.342;-1.290;2023-11-22T05:24:56;27;21;
28026;PMS5003;15344;52.342;-1.290;2023-11-22T05:27:21;25;19;
28026;PMS5003;15344;52.342;-1.290;2023-11-22T05:29:46;19;19;
28026;PMS5003;15344;52.342;-1.290;2023-11-22T05:32:12;27;21;
28026;PMS5003;15344;52.342;-1.290;2023-11-22T05:34:37;31;20;
28026;PMS5003;15344;52.342;-1.290;2023-11-22T05:37:02;26;19;
28026;PMS5003;15344;52.342;-1.290;2023-11-22T05:39:27;26;20;
28026;PMS5003;15344;52.342;-1.290;2023-11-22T05:41:53;22;19;
28026;PMS5003;15344;52.342;-1.290;2023-11-22T05:44:18;24;19;
28026;PMS5003;15344;52.342;-1.290;2023-11-22T05:46:43;23;21;
28026;PMS5003;15344;52.342;-1.290;2023-11-22T05:49:09;28;21;
28026;PMS5003;15344;52.342;-1.290;2023-11-22T05:51:34;21;20;
28026;PMS5003;15344;52.342;-1.290;2023-11-22T05:53:59;27;24;
28026;PMS5003;15344;52.342;-1.290;2023-11-22T05:56:25;34;23;
28026;PMS5003;15344;52.342;-1.290;2023-11-22T05:58:51;32;22;
28026;PMS5003;15344;52.342;-1.290;2023-11-22T06:01:16;22;22;
28026;PMS5003;15344;52.342;-1.290;2023-11-22T06:03:42;37;24;
28026;PMS5003;15344;52.342;-1.290;2023-11-22T06:06:08;23;18;
28026;PMS5003;15344;52.342;-1.290;2023-11-22T06:08:33;21;19;
28026;PMS5003;15344;52.342;-1.290;2023-11-22T06:10:59;26;22;
28026;PMS5003;15344;52.342;-1.290;2023-11-22T06:13:24;25;20;
28026;PMS5003;15344;52.342;-1.290;2023-11-22T06:15:50;20;18;
28026;PMS5003;15344;52.342;-1.290;2023-11-22T06:18:15;23;20;
28026;PMS5003;15344;52.342;-1.290;2023-11-22T06:20:40;21;18;
28026;PMS5003;15344;52.342;-1.290;2023-11-22T06:23:06;24;20;
28026;PMS5003;15344;52.342;-1.290;2023-11-22T06:25:31;25;17;
28026;PMS5003;15344;52.342;-1.290;2023-11-22T06:27:57;23;17;
28026;PMS5003;15344;52.342;-1.290;2023-11-22T06:30:23;21;16;
28026;PMS5003;15344;52.342;-1.290;2023-11-22T06:32:48;22;17;
28026;PMS5003;15344;52.342;-1.290;2023-11-22T06:35:13;21;17;
28026;PMS5003;15344;52.342;-1.290;2023-11-22T06:37:39;23;20;
28026;PMS5003;15344;52.342;-1.290;2023-11-22T06:40:04;24;17;
28026;PMS5003;15344;52.342;-1.290;2023-11-22T06:42:29;25;16;
28026;PMS5003;15344;52.342;-1.290;2023-11-22T06:44:54;33;22;
28026;PMS5003;15344;52.342;-1.290;2023-11-22T06:47:20;18;16;
28026;PMS5003;15344;52.342;-1.290;2023-11-22T06:49:45;23;15;
28026;PMS5003;15344;52.342;-1.290;2023-11-22T06:52:10;22;18;
28026;PMS5003;15344;52.342;-1.290;2023-11-22T06:54:35;17;16;
28026;PMS5003;15344;52.342;-1.290;2023-11-22T06:57:01;24;18;
28026;PMS5003;15344;52.342;-1.290;2023-11-22T06:59:27;20;14;
28026;PMS5003;15344;52.342;-1.290;2023-11-22T07:01:52;14;14;
28026;PMS5003;15344;52.342;-1.290;2023-11-22T07:04:17;19;13;
28026;PMS5003;15344;52.342;-1.290;2023-11-22T07:06:43;14;13;
28026;PMS5003;15344;52.342;-1.290;2023-11-22T07:09:08;13;12;
28026;PMS5003;15344;52.342;-1.290;2023-11-22T07:11:33;14;12;
28026;PMS5003;15344;52.342;-1.290;2023-11-22T07:13:59;17;12;
28026;PMS5003;15344;52.342;-1.290;2023-11-22T07:16:24;14;11;
28026;PMS5003;15344;52.342;-1.290;2023-11-22T07:18:49;12;11;
28026;PMS5003;15344;52.342;-1.290;2023-11-22T07:21:14;13;11;
28026;PMS5003;15344;52.342;-1.290;2023-11-22T07:23:39;11;10;
28026;PMS5003;15344;52.342;-1.290;2023-11-22T07:26:05;12;10;
28026;PMS5003;15344;52.342;-1.290;2023-11-22T07:28:31;13;13;
28026;PMS5003;15344;52.342;-1.290;2023-11-22T07:30:56;15;15;
28026;PMS5003;15344;52.342;-1.290;2023-11-22T07:33:21;23;17;
28026;PMS5003;15344;52.342;-1.290;2023-11-22T07:35:46;13;13;
28026;PMS5003;15344;52.342;-1.290;2023-11-22T07:38:12;17;14;
28026;PMS5003;15344;52.342;-1.290;2023-11-22T07:40:37;16;12;
28026;PMS5003;15344;52.342;-1.290;2023-11-22T07:43:03;13;13;
28026;PMS5003;15344;52.342;-1.290;2023-11-22T07:45:28;25;14;
28026;PMS5003;15344;52.342;-1.290;2023-11-22T07:47:54;13;13;
28026;PMS5003;15344;52.342;-1.290;2023-11-22T07:50:19;16;13;
28026;PMS5003;15344;52.342;-1.290;2023-11-22T07:52:45;16;15;
28026;PMS5003;15344;52.342;-1.290;2023-11-22T07:55:10;15;11;
28026;PMS5003;15344;52.342;-1.290;2023-11-22T07:57:36;15;14;
28026;PMS5003;15344;52.342;-1.290;2023-11-22T08:00:01;16;11;
28026;PMS5003;15344;52.342;-1.290;2023-11-22T08:02:26;15;11;
28026;PMS5003;15344;52.342;-1.290;2023-11-22T08:04:52;8;8;
28026;PMS5003;15344;52.342;-1.290;2023-11-22T08:07:17;12;9;
28026;PMS5003;15344;52.342;-1.290;2023-11-22T08:09:42;12;11;
28026;PMS5003;15344;52.342;-1.290;2023-11-22T08:12:07;15;14;
28026;PMS5003;15344;52.342;-1.290;2023-11-22T08:14:33;18;12;
28026;PMS5003;15344;52.342;-1.290;2023-11-22T08:16:58;14;11;
28026;PMS5003;15344;52.342;-1.290;2023-11-22T08:19:23;12;10;
28026;PMS5003;15344;52.342;-1.290;2023-11-22T08:21:49;14;12;
28026;PMS5003;15344;52.342;-1.290;2023-11-22T08:24:14;7;6;
28026;PMS5003;15344;52.342;-1.290;2023-11-22T08:26:40;12;9;
28026;PMS5003;15344;52.342;-1.290;2023-11-22T08:29:05;8;8;
28026;PMS5003;15344;52.342;-1.290;2023-11-22T08:31:31;11;9;
28026;PMS5003;15344;52.342;-1.290;2023-11-22T08:33:56;9;9;
28026;PMS5003;15344;52.342;-1.290;2023-11-22T08:36:22;10;9;
28026;PMS5003;15344;52.342;-1.290;2023-11-22T08:38:47;8;7;
28026;PMS5003;15344;52.342;-1.290;2023-11-22T08:41:12;10;7;
28026;PMS5003;15344;52.342;-1.290;2023-11-22T08:43:37;7;5;
28026;PMS5003;15344;52.342;-1.290;2023-11-22T08:46:03;8;6;
28026;PMS5003;15344;52.342;-1.290;2023-11-22T08:48:28;10;8;
28026;PMS5003;15344;52.342;-1.290;2023-11-22T08:50:53;13;9;
28026;PMS5003;15344;52.342;-1.290;2023-11-22T08:53:19;15;11;
28026;PMS5003;15344;52.342;-1.290;2023-11-22T08:55:44;12;9;
28026;PMS5003;15344;52.342;-1.290;2023-11-22T08:58:10;11;9;
28026;PMS5003;15344;52.342;-1.290;2023-11-22T09:00:35;19;9;
28026;PMS5003;15344;52.342;-1.290;2023-11-22T09:03:01;8;8;
28026;PMS5003;15344;52.342;-1.290;2023-11-22T09:05:26;10;8;
28026;PMS5003;15344;52.342;-1.290;2023-11-22T09:07:51;8;8;
28026;PMS5003;15344;52.342;-1.290;2023-11-22T09:10:17;11;8;
28026;PMS5003;15344;52.342;-1.290;2023-11-22T09:12:42;7;7;
28026;PMS5003;15344;52.342;-1.290;2023-11-22T09:15:08;8;6;
28026;PMS5003;15344;52.342;-1.290;2023-11-22T09:17:33;12;11;
28026;PMS5003;15344;52.342;-1.290;2023-11-22T09:19:59;8;6;
28026;PMS5003;15344;52.342;-1.290;2023-11-22T09:22:24;9;8;
28026;PMS5003;15344;52.342;-1.290;2023-11-22T09:24:49;7;6;
28026;PMS5003;15344;52.342;-1.290;2023-11-22T09:27:14;6;6;
28026;PMS5003;15344;52.342;-1.290;2023-11-22T09:29:40;7;6;
28026;PMS5003;15344;52.342;-1.290;2023-11-22T09:32:06;9;5;
28026;PMS5003;15344;52.342;-1.290;2023-11-22T09:34:31;7;6;
28026;PMS5003;15344;52.342;-1.290;2023-11-22T09:36:57;10;7;
28026;PMS5003;15344;52.342;-1.290;2023-11-22T09:39:22;5;5;
28026;PMS5003;15344;52.342;-1.290;2023-11-22T09:41:52;7;5;
28026;PMS5003;15344;52.342;-1.290;2023-11-22T09:44:12;7;6;
28026;PMS5003;15344;52.342;-1.290;2023-11-22T09:46:38;4;4;
28026;PMS5003;15344;52.342;-1.290;2023-11-22T09:49:03;5;4;
28026;PMS5003;15344;52.342;-1.290;2023-11-22T09:51:29;5;5;
28026;PMS5003;15344;52.342;-1.290;2023-11-22T09:53:55;7;5;
28026;PMS5003;15344;52.342;-1.290;2023-11-22T09:56:19;5;5;
28026;PMS5003;15344;52.342;-1.290;2023-11-22T09:58:45;7;6;
28026;PMS5003;15344;52.342;-1.290;2023-11-22T10:01:10;5;5;
28026;PMS5003;15344;52.342;-1.290;2023-11-22T10:03:35;4;4;
28026;PMS5003;15344;52.342;-1.290;2023-11-22T10:06:01;4;2;
28026;PMS5003;15344;52.342;-1.290;2023-11-22T10:08:26;6;4;
28026;PMS5003;15344;52.342;-1.290;2023-11-22T10:10:52;2;2;
28026;PMS5003;15344;52.342;-1.290;2023-11-22T10:13:17;6;3;
28026;PMS5003;15344;52.342;-1.290;2023-11-22T10:15:42;4;3;
28026;PMS5003;15344;52.342;-1.290;2023-11-22T10:18:08;3;2;
28026;PMS5003;15344;52.342;-1.290;2023-11-22T10:20:37;3;3;
28026;PMS5003;15344;52.342;-1.290;2023-11-22T10:22:59;3;3;
28026;PMS5003;15344;52.342;-1.290;2023-11-22T10:25:24;7;5;
28026;PMS5003;15344;52.342;-1.290;2023-11-22T10:27:49;5;5;
28026;PMS5003;15344;52.342;-1.290;2023-11-22T10:30:15;4;2;
28026;PMS5003;15344;52.342;-1.290;2023-11-22T10:32:41;5;5;
28026;PMS5003;15344;52.342;-1.290;2023-11-22T10:35:06;3;3;
28026;PMS5003;15344;52.342;-1.290;2023-11-22T10:37:31;6;4;
28026;PMS5003;15344;52.342;-1.290;2023-11-22T10:39:57;3;3;
28026;PMS5003;15344;52.342;-1.290;2023-11-22T10:42:22;6;3;
28026;PMS5003;15344;52.342;-1.290;2023-11-22T10:44:47;6;4;
28026;PMS5003;15344;52.342;-1.290;2023-11-22T10:47:13;4;2;
28026;PMS5003;15344;52.342;-1.290;2023-11-22T10:49:38;4;3;
28026;PMS5003;15344;52.342;-1.290;2023-11-22T10:52:03;2;2;
28026;PMS5003;15344;52.342;-1.290;2023-11-22T10:54:29;5;5;
28026;PMS5003;15344;52.342;-1.290;2023-11-22T10:56:54;2;2;
28026;PMS5003;15344;52.342;-1.290;2023-11-22T10:59:19;3;3;
28026;PMS5003;15344;52.342;-1.290;2023-11-22T11:01:45;3;3;
28026;PMS5003;15344;52.342;-1.290;2023-11-22T11:04:11;4;4;
28026;PMS5003;15344;52.342;-1.290;2023-11-22T11:06:36;4;4;
28026;PMS5003;15344;52.342;-1.290;2023-11-22T11:09:02;4;4;
28026;PMS5003;15344;52.342;-1.290;2023-11-22T11:11:27;6;3;
28026;PMS5003;15344;52.342;-1.290;2023-11-22T11:13:52;3;3;
28026;PMS5003;15344;52.342;-1.290;2023-11-22T11:16:17;8;4;
28026;PMS5003;15344;52.342;-1.290;2023-11-22T11:18:42;6;5;
28026;PMS5003;15344;52.342;-1.290;2023-11-22T11:21:08;6;5;
28026;PMS5003;15344;52.342;-1.290;2023-11-22T11:23:33;9;5;
28026;PMS5003;15344;52.342;-1.290;2023-11-22T11:26:08;4;4;
28026;PMS5003;15344;52.342;-1.290;2023-11-22T11:28:24;3;3;
28026;PMS5003;15344;52.342;-1.290;2023-11-22T11:30:49;3;3;
28026;PMS5003;15344;52.342;-1.290;2023-11-22T11:33:15;3;3;
28026;PMS5003;15344;52.342;-1.290;2023-11-22T11:35:42;2;2;
28026;PMS5003;15344;52.342;-1.290;2023-11-22T11:38:06;3;3;
28026;PMS5003;15344;52.342;-1.290;2023-11-22T11:40:31;4;4;
28026;PMS5003;15344;52.342;-1.290;2023-11-22T11:42:56;2;2;
28026;PMS5003;15344;52.342;-1.290;2023-11-22T11:45:22;7;2;
28026;PMS5003;15344;52.342;-1.290;2023-11-22T11:47:47;5;2;
28026;PMS5003;15344;52.342;-1.290;2023-11-22T11:50:12;4;4;
28026;PMS5003;15344;52.342;-1.290;2023-11-22T11:52:38;1;1;
28026;PMS5003;15344;52.342;-1.290;2023-11-22T11:55:04;5;4;
28026;PMS5003;15344;52.342;-1.290;2023-11-22T11:57:30;3;3;
28026;PMS5003;15344;52.342;-1.290;2023-11-22T11:59:54;3;1;
28026;PMS5003;15344;52.342;-1.290;2023-11-22T12:02:19;3;1;
28026;PMS5003;15344;52.342;-1.290;2023-11-22T12:04:45;5;3;
28026;PMS5003;15344;52.342;-1.290;2023-11-22T12:07:10;3;3;
28026;PMS5003;15344;52.342;-1.290;2023-11-22T12:09:35;2;2;
28026;PMS5003;15344;52.342;-1.290;2023-11-22T12:12:00;6;2;
28026;PMS5003;15344;52.342;-1.290;2023-11-22T12:14:26;4;4;
28026;PMS5003;15344;52.342;-1.290;2023-11-22T12:16:51;6;3;
28026;PMS5003;15344;52.342;-1.290;2023-11-22T12:19:20;4;3;
28026;PMS5003;15344;52.342;-1.290;2023-11-22T12:21:42;5;3;
28026;PMS5003;15344;52.342;-1.290;2023-11-22T12:24:07;7;2;
28026;PMS5003;15344;52.342;-1.290;2023-11-22T12:26:32;6;3;
28026;PMS5003;15344;52.342;-1.290;2023-11-22T12:28:58;3;3;
28026;PMS5003;15344;52.342;-1.290;2023-11-22T12:31:23;5;3;
28026;PMS5003;15344;52.342;-1.290;2023-11-22T12:33:48;2;2;
28026;PMS5003;15344;52.342;-1.290;2023-11-22T12:36:14;8;3;
28026;PMS5003;15344;52.342;-1.290;2023-11-22T12:38:40;3;3;
28026;PMS5003;15344;52.342;-1.290;2023-11-22T12:41:05;3;3;
28026;PMS5003;15344;52.342;-1.290;2023-11-22T12:43:30;4;3;
28026;PMS5003;15344;52.342;-1.290;2023-11-22T12:45:59;3;3;
28026;PMS5003;15344;52.342;-1.290;2023-11-22T12:48:21;3;3;
28026;PMS5003;15344;52.342;-1.290;2023-11-22T12:50:46;4;2;
28026;PMS5003;15344;52.342;-1.290;2023-11-22T12:53:12;6;4;
28026;PMS5003;15344;52.342;-1.290;2023-11-22T12:55:37;4;3;
28026;PMS5003;15344;52.342;-1.290;2023-11-22T12:58:02;4;4;
28026;PMS5003;15344;52.342;-1.290;2023-11-22T13:00:27;8;4;
28026;PMS5003;15344;52.342;-1.290;2023-11-22T13:02:53;6;4;
28026;PMS5003;15344;52.342;-1.290;2023-11-22T13:05:18;3;3;
28026;PMS5003;15344;52.342;-1.290;2023-11-22T13:07:43;4;3;
28026;PMS5003;15344;52.342;-1.290;2023-11-22T13:10:08;7;5;
28026;PMS5003;15344;52.342;-1.290;2023-11-22T13:12:34;2;2;
28026;PMS5003;15344;52.342;-1.290;2023-11-22T13:14:59;5;3;
28026;PMS5003;15344;52.342;-1.290;2023-11-22T13:17:25;5;2;
28026;PMS5003;15344;52.342;-1.290;2023-11-22T13:19:50;5;4;
28026;PMS5003;15344;52.342;-1.290;2023-11-22T13:22:15;8;3;
28026;PMS5003;15344;52.342;-1.290;2023-11-22T13:24:40;4;3;
28026;PMS5003;15344;52.342;-1.290;2023-11-22T13:27:09;3;3;
28026;PMS5003;15344;52.342;-1.290;2023-11-22T13:29:31;4;3;
28026;PMS5003;15344;52.342;-1.290;2023-11-22T13:31:56;3;2;
28026;PMS5003;15344;52.342;-1.290;2023-11-22T13:34:22;4;3;
28026;PMS5003;15344;52.342;-1.290;2023-11-22T13:36:47;4;4;
28026;PMS5003;15344;52.342;-1.290;2023-11-22T13:39:12;6;2;
28026;PMS5003;15344;52.342;-1.290;2023-11-22T13:41:37;5;4;
28026;PMS5003;15344;52.342;-1.290;2023-11-22T13:44:03;3;1;
28026;PMS5003;15344;52.342;-1.290;2023-11-22T13:46:28;2;2;
28026;PMS5003;15344;52.342;-1.290;2023-11-22T13:48:53;6;4;
28026;PMS5003;15344;52.342;-1.290;2023-11-22T13:51:19;3;3;
28026;PMS5003;15344;52.342;-1.290;2023-11-22T13:53:44;4;4;
28026;PMS5003;15344;52.342;-1.290;2023-11-22T13:56:09;3;3;
28026;PMS5003;15344;52.342;-1.290;2023-11-22T13:58:35;4;4;
28026;PMS5003;15344;52.342;-1.290;2023-11-22T14:01:00;5;5;
28026;PMS5003;15344;52.342;-1.290;2023-11-22T14:03:25;5;5;
28026;PMS5003;15344;52.342;-1.290;2023-11-22T14:05:51;5;3;
28026;PMS5003;15344;52.342;-1.290;2023-11-22T14:08:16;3;3;
28026;PMS5003;15344;52.342;-1.290;2023-11-22T14:10:41;6;3;
28026;PMS5003;15344;52.342;-1.290;2023-11-22T14:13:07;3;3;
28026;PMS5003;15344;52.342;-1.290;2023-11-22T14:15:32;2;2;
28026;PMS5003;15344;52.342;-1.290;2023-11-22T14:17:57;3;3;
28026;PMS5003;15344;52.342;-1.290;2023-11-22T14:20:22;5;3;
28026;PMS5003;15344;52.342;-1.290;2023-11-22T14:22:48;5;3;
28026;PMS5003;15344;52.342;-1.290;2023-11-22T14:25:13;7;5;
28026;PMS5003;15344;52.342;-1.290;2023-11-22T14:27:38;7;5;
28026;PMS5003;15344;52.342;-1.290;2023-11-22T14:30:04;4;3;
28026;PMS5003;15344;52.342;-1.290;2023-11-22T14:32:29;5;3;
28026;PMS5003;15344;52.342;-1.290;2023-11-22T14:34:54;6;3;
28026;PMS5003;15344;52.342;-1.290;2023-11-22T14:37:19;6;6;
28026;PMS5003;15344;52.342;-1.290;2023-11-22T14:39:45;3;3;
28026;PMS5003;15344;52.342;-1.290;2023-11-22T14:42:10;3;3;
28026;PMS5003;15344;52.342;-1.290;2023-11-22T14:44:36;7;3;
28026;PMS5003;15344;52.342;-1.290;2023-11-22T14:47:01;3;2;
28026;PMS5003;15344;52.342;-1.290;2023-11-22T14:49:26;4;4;
28026;PMS5003;15344;52.342;-1.290;2023-11-22T14:51:51;5;4;
28026;PMS5003;15344;52.342;-1.290;2023-11-22T14:54:17;7;4;
28026;PMS5003;15344;52.342;-1.290;2023-11-22T14:56:42;3;3;
28026;PMS5003;15344;52.342;-1.290;2023-11-22T14:59:07;8;5;
28026;PMS5003;15344;52.342;-1.290;2023-11-22T15:01:32;3;3;
28026;PMS5003;15344;52.342;-1.290;2023-11-22T15:03:58;3;1;
28026;PMS5003;15344;52.342;-1.290;2023-11-22T15:06:23;5;4;
28026;PMS5003;15344;52.342;-1.290;2023-11-22T15:08:48;6;4;
28026;PMS5003;15344;52.342;-1.290;2023-11-22T15:11:14;4;4;
28026;PMS5003;15344;52.342;-1.290;2023-11-22T15:13:39;3;3;
28026;PMS5003;15344;52.342;-1.290;2023-11-22T15:16:05;4;4;
28026;PMS5003;15344;52.342;-1.290;2023-11-22T15:18:30;5;3;
28026;PMS5003;15344;52.342;-1.290;2023-11-22T15:20:55;2;2;
28026;PMS5003;15344;52.342;-1.290;2023-11-22T15:23:20;6;4;
28026;PMS5003;15344;52.342;-1.290;2023-11-22T15:25:46;4;4;
28026;PMS5003;15344;52.342;-1.290;2023-11-22T15:28:11;6;5;
28026;PMS5003;15344;52.342;-1.290;2023-11-22T15:30:36;4;4;
28026;PMS5003;15344;52.342;-1.290;2023-11-22T15:33:01;7;5;
28026;PMS5003;15344;52.342;-1.290;2023-11-22T15:35:27;6;5;
28026;PMS5003;15344;52.342;-1.290;2023-11-22T15:37:52;7;5;
28026;PMS5003;15344;52.342;-1.290;2023-11-22T15:40:17;6;4;
28026;PMS5003;15344;52.342;-1.290;2023-11-22T15:42:44;8;5;
28026;PMS5003;15344;52.342;-1.290;2023-11-22T15:45:09;5;5;
28026;PMS5003;15344;52.342;-1.290;2023-11-22T15:47:34;5;5;
28026;PMS5003;15344;52.342;-1.290;2023-11-22T15:49:59;6;6;
28026;PMS5003;15344;52.342;-1.290;2023-11-22T15:52:24;5;4;
28026;PMS5003;15344;52.342;-1.290;2023-11-22T15:54:49;5;5;
28026;PMS5003;15344;52.342;-1.290;2023-11-22T15:57:15;8;4;
28026;PMS5003;15344;52.342;-1.290;2023-11-22T15:59:40;6;4;
28026;PMS5003;15344;52.342;-1.290;2023-11-22T16:02:05;5;4;